Time;durP1;ratioP1;P1;durP2;ratioP2;P2;SDS_P1;SDS_P2;PMS_P1;PMS_P2;Temp;Humidity;BMP_temperature;BMP_pressure;BME280_temperature;BME280_humidity;BME280_pressure;Samples;Min_cycle;Max_cycle;Signal;HPM_P1;HPM_P2
2023/12/27 00:00:59;;;;;;;5.10;2.70;;;;;;;-147.86;100.00;-17609.17;106135;1253;73761;-52
2023/12/27 00:03:26;;;;;;;3.10;2.80;;;;;;;-147.86;100.00;-17609.17;106084;1254;64573;-55
2023/12/27 00:05:53;;;;;;;4.80;2.80;;;;;;;-147.86;100.00;-17609.17;106025;1251;72595;-55
2023/12/27 00:08:20;;;;;;;4.10;2.80;;;;;;;-147.86;100.00;-17609.17;106036;1251;61893;-52
2023/12/27 00:10:47;;;;;;;4.40;2.50;;;;;;;-147.86;100.00;-17609.17;106093;1250;60437;-54
2023/12/27 00:13:14;;;;;;;5.10;3.00;;;;;;;-147.86;100.00;-17609.17;106084;1252;73678;-56
2023/12/27 00:15:45;;;;;;;3.60;2.50;;;;;;;-147.86;100.00;-17609.17;106121;1253;64679;-54
2023/12/27 00:18:12;;;;;;;2.70;2.30;;;;;;;-147.86;100.00;-17609.17;106068;1251;72575;-53
2023/12/27 00:20:39;;;;;;;4.40;2.40;;;;;;;-147.86;100.00;-17609.17;106036;1254;61986;-54
2023/12/27 00:23:06;;;;;;;4.30;3.00;;;;;;;-147.86;100.00;-17609.17;106031;1250;60389;-55
2023/12/27 00:25:33;;;;;;;4.40;2.70;;;;;;;-147.86;100.00;-17609.17;106118;1251;73596;-53
2023/12/27 00:28:00;;;;;;;4.70;2.90;;;;;;;-147.86;100.00;-17609.17;106055;1254;64660;-52
2023/12/27 00:30:27;;;;;;;3.90;2.60;;;;;;;-147.86;100.00;-17609.17;106019;1251;72608;-52
2023/12/27 00:32:55;;;;;;;5.60;2.40;;;;;;;-147.86;100.00;-17609.17;106150;1254;61792;-58
2023/12/27 00:35:22;;;;;;;3.20;2.80;;;;;;;-147.86;100.00;-17609.17;106037;1251;60549;-55
2023/12/27 00:37:48;;;;;;;4.00;2.70;;;;;;;-147.86;100.00;-17609.17;106055;1251;72753;-54
2023/12/27 00:40:15;;;;;;;4.30;2.40;;;;;;;-147.86;100.00;-17609.17;106092;1254;63677;-56
2023/12/27 00:42:43;;;;;;;2.40;2.20;;;;;;;-147.86;100.00;-17609.17;106042;1254;71540;-55
2023/12/27 00:45:10;;;;;;;3.00;2.30;;;;;;;-147.86;100.00;-17609.17;106042;1254;62030;-55
2023/12/27 00:47:37;;;;;;;3.50;2.20;;;;;;;-147.86;100.00;-17609.17;106007;1251;60494;-55
2023/12/27 00:50:05;;;;;;;2.90;1.80;;;;;;;-147.86;100.00;-17609.17;106021;1253;73741;-50
2023/12/27 00:52:32;;;;;;;4.00;2.00;;;;;;;-147.86;100.00;-17609.17;106073;1254;64717;-57
2023/12/27 00:54:59;;;;;;;5.00;2.10;;;;;;;-147.86;100.00;-17609.17;106090;1250;72688;-55
2023/12/27 00:57:26;;;;;;;2.10;1.50;;;;;;;-147.86;100.00;-17609.17;106046;1254;61902;-55
2023/12/27 00:59:53;;;;;;;6.30;2.10;;;;;;;-147.86;100.00;-17609.17;106094;1251;60488;-59
2023/12/27 01:02:21;;;;;;;1.50;1.30;;;;;;;-147.86;100.00;-17609.17;106072;1251;73973;-55
2023/12/27 01:04:49;;;;;;;2.60;1.70;;;;;;;-147.86;100.00;-17609.17;106094;1254;64773;-51
2023/12/27 01:07:16;;;;;;;2.00;1.40;;;;;;;-147.86;100.00;-17609.17;106049;1254;72598;-53
2023/12/27 01:09:43;;;;;;;2.70;1.30;;;;;;;-147.86;100.00;-17609.17;106087;1254;60319;-53
2023/12/27 01:12:10;;;;;;;2.10;1.80;;;;;;;-147.86;100.00;-17609.17;106005;1251;60526;-52
2023/12/27 01:14:37;;;;;;;1.60;1.40;;;;;;;-147.86;100.00;-17609.17;106042;1254;73837;-52
2023/12/27 01:17:04;;;;;;;1.90;1.70;;;;;;;-147.86;100.00;-17609.17;106116;1254;64467;-52
2023/12/27 01:19:31;;;;;;;1.30;1.20;;;;;;;-147.86;100.00;-17609.17;106054;1251;72567;-57
2023/12/27 01:21:58;;;;;;;2.90;1.40;;;;;;;-147.86;100.00;-17609.17;106036;1254;60325;-52
2023/12/27 01:24:25;;;;;;;1.40;1.30;;;;;;;-147.86;100.00;-17609.17;106069;1251;60450;-54
2023/12/27 01:26:52;;;;;;;1.70;1.60;;;;;;;-147.86;100.00;-17609.17;106019;1257;73736;-54
2023/12/27 01:29:19;;;;;;;2.20;1.30;;;;;;;-147.86;100.00;-17609.17;106081;1253;64570;-49
2023/12/27 01:31:46;;;;;;;1.60;1.40;;;;;;;-147.86;100.00;-17609.17;106033;1251;72650;-54
2023/12/27 01:34:13;;;;;;;1.80;1.00;;;;;;;-147.86;100.00;-17609.17;105936;1255;60389;-57
2023/12/27 01:36:50;;;;;;;1.40;1.30;;;;;;;-147.86;100.00;-17609.17;106033;1251;60584;-54
2023/12/27 01:39:17;;;;;;;2.40;1.40;;;;;;;-147.86;100.00;-17609.17;106093;1254;73809;-55
2023/12/27 01:41:44;;;;;;;1.10;1.10;;;;;;;-147.86;100.00;-17609.17;106027;1254;64627;-56
2023/12/27 01:44:11;;;;;;;1.90;1.30;;;;;;;-147.86;100.00;-17609.17;106055;1251;72606;-55
2023/12/27 01:46:39;;;;;;;1.40;1.10;;;;;;;-147.86;100.00;-17609.17;106006;1256;60354;-55
2023/12/27 01:49:06;;;;;;;1.40;1.30;;;;;;;-147.86;100.00;-17609.17;106106;1251;60430;-52
2023/12/27 01:51:33;;;;;;;1.60;1.30;;;;;;;-147.86;100.00;-17609.17;106005;1256;73896;-58
2023/12/27 01:54:03;;;;;;;1.00;0.90;;;;;;;-147.86;100.00;-17609.17;106084;1254;64822;-52
2023/12/27 01:56:30;;;;;;;2.10;1.10;;;;;;;-147.86;100.00;-17609.17;106001;1252;72676;-52
2023/12/27 01:58:58;;;;;;;1.20;1.10;;;;;;;-147.86;100.00;-17609.17;105981;1256;62043;-54
2023/12/27 02:01:25;;;;;;;1.40;1.20;;;;;;;-147.86;100.00;-17609.17;106053;1256;60385;-53
2023/12/27 02:03:52;;;;;;;0.90;0.80;;;;;;;-147.86;100.00;-17609.17;106038;1251;73579;-56
2023/12/27 02:06:19;;;;;;;2.50;1.20;;;;;;;-147.86;100.00;-17609.17;105916;1258;64550;-52
2023/12/27 02:08:48;;;;;;;1.20;1.10;;;;;;;-147.86;100.00;-17609.17;106011;1251;72533;-51
2023/12/27 02:11:15;;;;;;;1.20;1.10;;;;;;;-147.86;100.00;-17609.17;105967;1256;61870;-56
2023/12/27 02:13:42;;;;;;;2.90;1.00;;;;;;;-147.86;100.00;-17609.17;105924;1251;60533;-55
2023/12/27 02:16:09;;;;;;;2.40;1.40;;;;;;;-147.86;100.00;-17609.17;105929;1257;73807;-54
2023/12/27 02:18:37;;;;;;;1.70;1.10;;;;;;;-147.86;100.00;-17609.17;105759;1250;63483;-52
2023/12/27 02:21:04;;;;;;;1.30;1.20;;;;;;;-147.86;100.00;-17609.17;105932;1251;72543;-53
2023/12/27 02:23:32;;;;;;;1.10;1.10;;;;;;;-147.86;100.00;-17609.17;106024;1254;60414;-56
2023/12/27 02:25:58;;;;;;;3.50;0.80;;;;;;;-147.86;100.00;-17609.17;106049;1252;60427;-54
2023/12/27 02:28:25;;;;;;;2.60;1.10;;;;;;;-147.86;100.00;-17609.17;106037;1254;73784;-59
2023/12/27 02:30:55;;;;;;;3.00;1.20;;;;;;;-147.86;100.00;-17609.17;106066;1254;64721;-54
2023/12/27 02:33:22;;;;;;;2.20;1.60;;;;;;;-147.86;100.00;-17609.17;106007;1250;72761;-54
2023/12/27 02:35:50;;;;;;;2.60;1.70;;;;;;;-147.86;100.00;-17609.17;106019;1254;60504;-57
2023/12/27 02:38:17;;;;;;;2.30;1.60;;;;;;;-147.86;100.00;-17609.17;105978;1251;60485;-53
2023/12/27 02:40:44;;;;;;;2.20;1.30;;;;;;;-147.86;100.00;-17609.17;106002;1256;73586;-51
2023/12/27 02:43:11;;;;;;;2.40;1.60;;;;;;;-147.86;100.00;-17609.17;106109;1254;64049;-52
2023/12/27 02:45:37;;;;;;;2.30;1.50;;;;;;;-147.86;100.00;-17609.17;106093;1254;72593;-52
2023/12/27 02:48:05;;;;;;;3.10;1.70;;;;;;;-147.86;100.00;-17609.17;106007;1254;60353;-53
2023/12/27 02:50:32;;;;;;;3.10;1.70;;;;;;;-147.86;100.00;-17609.17;106062;1251;60503;-53
2023/12/27 02:52:59;;;;;;;1.60;1.50;;;;;;;-147.86;100.00;-17609.17;106008;1254;72892;-57
2023/12/27 02:55:27;;;;;;;1.90;1.70;;;;;;;-147.86;100.00;-17609.17;106013;1256;64676;-52
2023/12/27 02:57:57;;;;;;;1.80;1.70;;;;;;;-147.86;100.00;-17609.17;106017;1251;71141;-58
2023/12/27 03:00:24;;;;;;;2.80;2.00;;;;;;;-147.86;100.00;-17609.17;106038;1253;60356;-55
2023/12/27 03:02:51;;;;;;;5.00;2.30;;;;;;;-147.86;100.00;-17609.17;106062;1251;60523;-55
2023/12/27 03:05:18;;;;;;;1.80;1.70;;;;;;;-147.86;100.00;-17609.17;106125;1250;73809;-55
2023/12/27 03:07:45;;;;;;;3.40;2.00;;;;;;;-147.86;100.00;-17609.17;106048;1254;63633;-55
2023/12/27 03:10:12;;;;;;;3.70;2.20;;;;;;;-147.86;100.00;-17609.17;105956;1255;72610;-54
2023/12/27 03:12:40;;;;;;;4.00;2.30;;;;;;;-147.86;100.00;-17609.17;105989;1253;60855;-56
2023/12/27 03:15:07;;;;;;;2.40;2.00;;;;;;;-147.86;100.00;-17609.17;106069;1252;60920;-51
2023/12/27 03:17:34;;;;;;;3.80;2.20;;;;;;;-147.86;100.00;-17609.17;106091;1254;73855;-53
2023/12/27 03:20:01;;;;;;;2.40;2.00;;;;;;;-147.86;100.00;-17609.17;106053;1256;64585;-52
2023/12/27 03:22:29;;;;;;;3.60;1.90;;;;;;;-147.86;100.00;-17609.17;106060;1254;72480;-57
2023/12/27 03:24:56;;;;;;;2.80;1.90;;;;;;;-147.86;100.00;-17609.17;106162;1254;60588;-52
2023/12/27 03:27:23;;;;;;;2.40;2.20;;;;;;;-147.86;100.00;-17609.17;106063;1251;60526;-55
2023/12/27 03:29:50;;;;;;;3.30;2.10;;;;;;;-147.86;100.00;-17609.17;106017;1253;73790;-52
2023/12/27 03:32:18;;;;;;;2.90;2.20;;;;;;;-147.86;100.00;-17609.17;105963;1256;64607;-59
2023/12/27 03:34:44;;;;;;;2.80;2.10;;;;;;;-147.86;100.00;-17609.17;106050;1254;72571;-54
2023/12/27 03:37:12;;;;;;;2.50;2.30;;;;;;;-147.86;100.00;-17609.17;106063;1253;60965;-50
2023/12/27 03:39:41;;;;;;;2.40;2.20;;;;;;;-147.86;100.00;-17609.17;106078;1254;60696;-53
2023/12/27 03:42:09;;;;;;;2.90;2.00;;;;;;;-147.86;100.00;-17609.17;106003;1256;73882;-53
2023/12/27 03:44:36;;;;;;;2.20;1.90;;;;;;;-147.86;100.00;-17609.17;106083;1257;64643;-54
2023/12/27 03:47:03;;;;;;;2.70;2.10;;;;;;;-147.86;100.00;-17609.17;105995;1254;72676;-53
2023/12/27 03:49:30;;;;;;;2.90;1.80;;;;;;;-147.86;100.00;-17609.17;105958;1255;60469;-52
2023/12/27 03:51:57;;;;;;;4.00;1.60;;;;;;;-147.86;100.00;-17609.17;106044;1251;60462;-54
2023/12/27 03:54:24;;;;;;;3.30;1.50;;;;;;;-147.86;100.00;-17609.17;106057;1254;74371;-55
2023/12/27 03:56:51;;;;;;;5.00;2.30;;;;;;;-147.86;100.00;-17609.17;106002;1256;63391;-55
2023/12/27 03:59:19;;;;;;;1.60;1.30;;;;;;;-147.86;100.00;-17609.17;106049;1251;72592;-53
2023/12/27 04:01:46;;;;;;;2.90;1.80;;;;;;;-147.86;100.00;-17609.17;106136;1253;61813;-55
2023/12/27 04:04:13;;;;;;;3.40;1.60;;;;;;;-147.86;100.00;-17609.17;106056;1250;60527;-52
2023/12/27 04:06:41;;;;;;;1.60;1.50;;;;;;;-147.86;100.00;-17609.17;106050;1252;73698;-53
2023/12/27 04:09:08;;;;;;;3.30;1.50;;;;;;;-147.86;100.00;-17609.17;106047;1257;64727;-52
2023/12/27 04:11:43;;;;;;;2.10;1.40;;;;;;;-147.86;100.00;-17609.17;105963;1255;72436;-50
2023/12/27 04:14:15;;;;;;;2.80;1.70;;;;;;;-147.86;100.00;-17609.17;106089;1254;60572;-57
2023/12/27 04:16:43;;;;;;;1.40;1.30;;;;;;;-147.86;100.00;-17609.17;106017;1256;60401;-55
2023/12/27 04:19:11;;;;;;;1.30;1.20;;;;;;;-147.86;100.00;-17609.17;106085;1253;73643;-52
2023/12/27 04:21:39;;;;;;;1.10;1.00;;;;;;;-147.86;100.00;-17609.17;106069;1254;64669;-56
2023/12/27 04:24:08;;;;;;;1.60;1.30;;;;;;;-147.86;100.00;-17609.17;105756;1251;72321;-53
2023/12/27 04:26:39;;;;;;;1.80;1.50;;;;;;;-147.86;100.00;-17609.17;106007;1253;60446;-50
2023/12/27 04:29:08;;;;;;;1.60;1.50;;;;;;;-147.86;100.00;-17609.17;106018;1251;60527;-54
2023/12/27 04:31:36;;;;;;;3.20;1.60;;;;;;;-147.86;100.00;-17609.17;106010;1256;72516;-54
2023/12/27 04:34:03;;;;;;;1.40;1.30;;;;;;;-147.86;100.00;-17609.17;106012;1257;63711;-50
2023/12/27 04:36:35;;;;;;;4.30;1.70;;;;;;;-147.86;100.00;-17609.17;106054;1250;71493;-54
2023/12/27 04:39:02;;;;;;;1.60;1.40;;;;;;;-147.86;100.00;-17609.17;106031;1254;61811;-56
2023/12/27 04:41:29;;;;;;;3.30;1.30;;;;;;;-147.86;100.00;-17609.17;105938;1257;60530;-58
2023/12/27 04:43:56;;;;;;;2.40;1.50;;;;;;;-147.86;100.00;-17609.17;105994;1252;73848;-53
2023/12/27 04:46:23;;;;;;;1.40;1.20;;;;;;;-147.86;100.00;-17609.17;105995;1256;64536;-54
2023/12/27 04:48:50;;;;;;;2.80;1.40;;;;;;;-147.86;100.00;-17609.17;106060;1255;72428;-53
2023/12/27 04:51:17;;;;;;;2.40;1.50;;;;;;;-147.86;100.00;-17609.17;106053;1255;60409;-52
2023/12/27 04:53:44;;;;;;;5.20;1.60;;;;;;;-147.86;100.00;-17609.17;105991;1251;60527;-54
2023/12/27 04:56:11;;;;;;;0.70;0.70;;;;;;;-147.86;100.00;-17609.17;106015;1253;73633;-56
2023/12/27 04:58:38;;;;;;;3.90;1.10;;;;;;;-147.86;100.00;-17609.17;106030;1254;64781;-52
2023/12/27 05:01:08;;;;;;;0.80;0.80;;;;;;;-147.86;100.00;-17609.17;106019;1257;72586;-57
2023/12/27 05:03:37;;;;;;;2.00;1.00;;;;;;;-147.86;100.00;-17609.17;105986;1257;60328;-55
2023/12/27 05:06:08;;;;;;;0.80;0.80;;;;;;;-147.86;100.00;-17609.17;106058;1253;60398;-51
2023/12/27 05:08:37;;;;;;;1.50;0.80;;;;;;;-147.86;100.00;-17609.17;106019;1253;73834;-58
2023/12/27 05:11:12;;;;;;;1.20;1.10;;;;;;;-147.86;100.00;-17609.17;106031;1255;64763;-53
2023/12/27 05:13:40;;;;;;;1.60;1.00;;;;;;;-147.86;100.00;-17609.17;106008;1251;72982;-59
2023/12/27 05:16:14;;;;;;;3.20;1.60;;;;;;;-147.86;100.00;-17609.17;106042;1256;60415;-56
2023/12/27 05:18:43;;;;;;;1.60;1.10;;;;;;;-147.86;100.00;-17609.17;106008;1251;60415;-58
2023/12/27 05:21:12;;;;;;;1.80;1.10;;;;;;;-147.86;100.00;-17609.17;105906;1253;226163;-59
2023/12/27 05:25:23;;;;;;;3.30;1.00;;;;;;;-147.86;100.00;-17609.17;102791;1291;603670;-58
2023/12/27 05:27:50;;;;;;;1.10;1.10;;;;;;;-147.86;100.00;-17609.17;105148;1268;60108;-52
2023/12/27 05:30:17;;;;;;;2.80;1.00;;;;;;;-147.86;100.00;-17609.17;105003;1268;60281;-52
2023/12/27 05:32:44;;;;;;;0.80;0.80;;;;;;;-147.86;100.00;-17609.17;104997;1269;72302;-56
2023/12/27 05:35:11;;;;;;;1.20;1.10;;;;;;;-147.86;100.00;-17609.17;105169;1268;64623;-52
2023/12/27 05:37:38;;;;;;;1.60;1.50;;;;;;;-147.86;100.00;-17609.17;105014;1267;213165;-50
2023/12/27 05:40:06;;;;;;;3.30;1.10;;;;;;;-147.86;100.00;-17609.17;105232;1266;61935;-57
2023/12/27 05:42:33;;;;;;;0.60;0.60;;;;;;;-147.86;100.00;-17609.17;105269;1262;60191;-58
2023/12/27 05:45:00;;;;;;;1.20;0.80;;;;;;;-147.86;100.00;-17609.17;105213;1263;72308;-52
2023/12/27 05:47:27;;;;;;;1.10;0.90;;;;;;;-147.86;100.00;-17609.17;105292;1267;64639;-52
2023/12/27 05:49:54;;;;;;;0.90;0.80;;;;;;;-147.86;100.00;-17609.17;105519;1261;72634;-55
2023/12/27 05:52:21;;;;;;;1.60;0.90;;;;;;;-147.86;100.00;-17609.17;105472;1263;62014;-52
2023/12/27 05:54:48;;;;;;;2.40;0.90;;;;;;;-147.86;100.00;-17609.17;105435;1261;60198;-54
2023/12/27 05:57:14;;;;;;;1.20;1.00;;;;;;;-147.86;100.00;-17609.17;105630;1261;73042;-53
2023/12/27 05:59:42;;;;;;;1.70;1.10;;;;;;;-147.86;100.00;-17609.17;105617;1260;64793;-54
2023/12/27 06:02:09;;;;;;;1.00;0.90;;;;;;;-147.86;100.00;-17609.17;105626;1259;72603;-57
2023/12/27 06:04:35;;;;;;;0.80;0.70;;;;;;;-147.86;100.00;-17609.17;105597;1259;61974;-56
2023/12/27 06:07:03;;;;;;;1.00;1.00;;;;;;;-147.86;100.00;-17609.17;105650;1258;60177;-54
2023/12/27 06:09:31;;;;;;;2.50;1.10;;;;;;;-147.86;100.00;-17609.17;105587;1259;72816;-52
2023/12/27 06:11:58;;;;;;;3.50;1.30;;;;;;;-147.86;100.00;-17609.17;105645;1260;64647;-52
2023/12/27 06:14:25;;;;;;;2.30;1.40;;;;;;;-147.86;100.00;-17609.17;105632;1257;72605;-55
2023/12/27 06:16:53;;;;;;;1.20;1.00;;;;;;;-147.86;100.00;-17609.17;105634;1259;61727;-55
2023/12/27 06:19:19;;;;;;;2.10;1.00;;;;;;;-147.86;100.00;-17609.17;105630;1258;60345;-55
2023/12/27 06:21:47;;;;;;;1.60;0.90;;;;;;;-147.86;100.00;-17609.17;105641;1257;72987;-56
2023/12/27 06:24:14;;;;;;;4.10;0.90;;;;;;;-147.86;100.00;-17609.17;105647;1259;64613;-56
2023/12/27 06:26:41;;;;;;;1.40;0.90;;;;;;;-147.86;100.00;-17609.17;105658;1261;72679;-56
2023/12/27 06:29:09;;;;;;;3.20;1.10;;;;;;;-147.86;100.00;-17609.17;105663;1260;61993;-51
2023/12/27 06:31:36;;;;;;;0.90;0.90;;;;;;;-147.86;100.00;-17609.17;105630;1259;60249;-54
2023/12/27 06:34:03;;;;;;;1.80;1.00;;;;;;;-147.86;100.00;-17609.17;105645;1261;72928;-52
2023/12/27 06:36:30;;;;;;;2.20;1.20;;;;;;;-147.86;100.00;-17609.17;105652;1256;62236;-53
2023/12/27 06:38:57;;;;;;;4.10;1.30;;;;;;;-147.86;100.00;-17609.17;105661;1257;72569;-52
2023/12/27 06:41:24;;;;;;;1.90;1.40;;;;;;;-147.86;100.00;-17609.17;105660;1257;60414;-54
2023/12/27 06:43:51;;;;;;;2.40;1.20;;;;;;;-147.86;100.00;-17609.17;105601;1261;60337;-52
2023/12/27 06:46:18;;;;;;;1.60;1.30;;;;;;;-147.86;100.00;-17609.17;105636;1257;72895;-56
2023/12/27 06:48:45;;;;;;;0.90;0.90;;;;;;;-147.86;100.00;-17609.17;105647;1259;63992;-52
2023/12/27 06:51:13;;;;;;;3.10;1.30;;;;;;;-147.86;100.00;-17609.17;105629;1257;72486;-54
2023/12/27 06:53:39;;;;;;;2.00;1.10;;;;;;;-147.86;100.00;-17609.17;105587;1259;60530;-51
2023/12/27 06:56:06;;;;;;;1.60;1.50;;;;;;;-147.86;100.00;-17609.17;105651;1256;60297;-55
2023/12/27 06:58:33;;;;;;;1.20;1.10;;;;;;;-147.86;100.00;-17609.17;105699;1256;72956;-56
2023/12/27 07:01:01;;;;;;;2.00;1.50;;;;;;;-147.86;100.00;-17609.17;105667;1260;63737;-55
2023/12/27 07:03:28;;;;;;;2.10;1.20;;;;;;;-147.86;100.00;-17609.17;105624;1257;72650;-57
2023/12/27 07:05:55;;;;;;;4.00;1.20;;;;;;;-147.86;100.00;-17609.17;105638;1259;60410;-55
2023/12/27 07:08:22;;;;;;;1.50;1.30;;;;;;;-147.86;100.00;-17609.17;105639;1257;60339;-55
2023/12/27 07:10:49;;;;;;;3.00;1.40;;;;;;;-147.86;100.00;-17609.17;105600;1259;73011;-54
2023/12/27 07:13:16;;;;;;;2.60;1.50;;;;;;;-147.86;100.00;-17609.17;105286;1259;63627;-57
2023/12/27 07:15:43;;;;;;;2.60;1.20;;;;;;;-147.86;100.00;-17609.17;105310;1257;72483;-57
2023/12/27 07:18:10;;;;;;;2.00;1.30;;;;;;;-147.86;100.00;-17609.17;105605;1259;60354;-55
2023/12/27 07:20:37;;;;;;;1.50;1.30;;;;;;;-147.86;100.00;-17609.17;105639;1257;60765;-59
2023/12/27 07:23:04;;;;;;;2.50;1.20;;;;;;;-147.86;100.00;-17609.17;105657;1259;73443;-59
2023/12/27 07:25:31;;;;;;;1.70;1.10;;;;;;;-147.86;100.00;-17609.17;105675;1259;64632;-57
2023/12/27 07:27:58;;;;;;;1.90;1.20;;;;;;;-147.86;100.00;-17609.17;105633;1257;71384;-52
2023/12/27 07:30:25;;;;;;;2.00;1.20;;;;;;;-147.86;100.00;-17609.17;105623;1259;59733;-55
2023/12/27 07:32:53;;;;;;;2.10;1.20;;;;;;;-147.86;100.00;-17609.17;105619;1257;60246;-51
2023/12/27 07:35:20;;;;;;;3.00;1.50;;;;;;;-147.86;100.00;-17609.17;105608;1259;73465;-55
2023/12/27 07:37:46;;;;;;;4.90;1.30;;;;;;;-147.86;100.00;-17609.17;105624;1261;64564;-53
2023/12/27 07:40:15;;;;;;;6.00;1.50;;;;;;;-147.86;100.00;-17609.17;105613;1259;72674;-54
2023/12/27 07:42:43;;;;;;;1.40;1.30;;;;;;;-147.86;100.00;-17609.17;105623;1257;59608;-55
2023/12/27 07:45:10;;;;;;;4.30;1.80;;;;;;;-147.86;100.00;-17609.17;105665;1257;60275;-53
2023/12/27 07:47:37;;;;;;;3.60;1.30;;;;;;;-147.86;100.00;-17609.17;105669;1259;72887;-54
2023/12/27 07:50:05;;;;;;;7.30;1.30;;;;;;;-147.86;100.00;-17609.17;105669;1259;64678;-51
2023/12/27 07:52:33;;;;;;;7.60;1.20;;;;;;;-147.86;100.00;-17609.17;105656;1260;72714;-55
2023/12/27 07:55:00;;;;;;;1.20;1.00;;;;;;;-147.86;100.00;-17609.17;105656;1259;59708;-50
2023/12/27 07:57:26;;;;;;;5.00;1.20;;;;;;;-147.86;99.89;-17609.17;105651;1257;60261;-54
2023/12/27 07:59:57;;;;;;;3.20;1.20;;;;;;;-147.86;99.08;-17609.17;105589;1256;72882;-49
2023/12/27 08:02:24;;;;;;;3.00;1.20;;;;;;;-147.86;97.26;-17609.17;105660;1259;64650;-56
2023/12/27 08:04:51;;;;;;;1.70;1.20;;;;;;;-147.86;96.16;-17609.17;105644;1259;73085;-54
2023/12/27 08:07:17;;;;;;;3.00;1.30;;;;;;;-147.86;94.78;-17609.17;105649;1260;60214;-51
2023/12/27 08:09:44;;;;;;;3.10;1.50;;;;;;;-147.86;94.49;-17609.17;105633;1254;60158;-52
2023/12/27 08:12:11;;;;;;;3.40;1.10;;;;;;;-147.86;93.29;-17609.17;105593;1254;72121;-48
2023/12/27 08:14:38;;;;;;;3.80;1.30;;;;;;;-147.86;93.51;-17609.17;105646;1260;64395;-55
2023/12/27 08:17:07;;;;;;;5.30;1.10;;;;;;;-147.86;92.72;-17609.17;105968;1251;72442;-56
2023/12/27 08:19:35;;;;;;;6.00;1.40;;;;;;;-147.86;92.26;-17609.17;105955;1251;59679;-56
2023/12/27 08:22:03;;;;;;;2.60;1.30;;;;;;;-147.86;91.45;-17609.17;106001;1251;60277;-53
2023/12/27 08:24:30;;;;;;;2.60;1.40;;;;;;;-147.86;90.89;-17609.17;105927;1255;72961;-56
2023/12/27 08:26:57;;;;;;;2.00;1.00;;;;;;;-147.86;90.18;-17609.17;105893;1256;64592;-58
2023/12/27 08:29:25;;;;;;;2.30;1.00;;;;;;;-147.86;89.73;-17609.17;105943;1256;72648;-53
2023/12/27 08:31:52;;;;;;;3.30;1.20;;;;;;;-147.86;88.69;-17608.30;105976;1256;61129;-51
2023/12/27 08:34:19;;;;;;;7.10;1.30;;;;;;;-147.86;88.06;-17163.62;105963;1257;60235;-52
2023/12/27 08:36:48;;;;;;;3.80;1.00;;;;;;;-147.86;88.28;-17361.00;105991;1252;72965;-50
2023/12/27 08:39:15;;;;;;;3.30;1.10;;;;;;;-147.86;86.65;-16423.28;105945;1251;64673;-54
2023/12/27 08:41:42;;;;;;;1.90;0.90;;;;;;;-147.86;86.48;-15485.41;105967;1251;72678;-54
2023/12/27 08:44:10;;;;;;;2.20;1.10;;;;;;;-147.86;87.31;-16719.46;105988;1256;59995;-54
2023/12/27 08:46:36;;;;;;;5.60;1.50;;;;;;;-147.86;86.65;-16373.97;105949;1251;60442;-52
2023/12/27 08:49:03;;;;;;;1.20;1.00;;;;;;;-147.86;86.58;-16324.61;105973;1251;73161;-55
2023/12/27 08:51:32;;;;;;;1.30;1.00;;;;;;;-147.86;86.45;-16472.68;105929;1256;64695;-56
2023/12/27 08:53:59;;;;;;;1.50;1.40;;;;;;;-147.86;85.69;-15584.16;105938;1256;72597;-54
2023/12/27 08:56:26;;;;;;;1.70;1.10;;;;;;;-147.86;86.01;-15979.08;105987;1256;60826;-55
2023/12/27 08:58:52;;;;;;;1.60;0.90;;;;;;;-147.86;86.75;-16818.16;105959;1251;60317;-53
2023/12/27 09:01:19;;;;;;;1.30;1.00;;;;;;;-147.86;85.42;-16077.77;105943;1255;71611;-53
2023/12/27 09:03:48;;;;;;;1.80;1.00;;;;;;;-147.86;85.35;-15534.79;105946;1256;64658;-52
2023/12/27 09:06:15;;;;;;;2.80;1.10;;;;;;;-147.86;83.91;-14003.99;105935;1251;72731;-49
2023/12/27 09:08:42;;;;;;;3.60;0.90;;;;;;;-147.86;82.84;-11731.48;105921;1256;59607;-51
2023/12/27 09:11:10;;;;;;;3.50;0.80;;;;;;;-147.86;81.11;-5496.60;105979;1251;60150;-50
2023/12/27 09:13:36;;;;;;;4.20;1.40;;;;;;;-147.86;79.67;8633.56;105977;1256;72997;-54
2023/12/27 09:16:04;;;;;;;1.80;1.00;;;;;;;-147.86;79.32;8732.62;105965;1255;64847;-51
2023/12/27 09:18:31;;;;;;;4.40;1.20;;;;;;;-147.86;79.12;9068.93;105954;1255;72136;-53
2023/12/27 09:20:58;;;;;;;1.60;1.20;;;;;;;-147.86;78.84;12102.48;105926;1256;60606;-55
2023/12/27 09:23:25;;;;;;;6.40;1.30;;;;;;;-147.86;79.66;-3222.00;105970;1251;60259;-55
2023/12/27 09:25:52;;;;;;;3.10;1.10;;;;;;;-147.86;79.33;-2132.17;105938;1251;73015;-52
2023/12/27 09:28:19;;;;;;;2.00;0.80;;;;;;;-147.86;79.66;-4163.05;105963;1255;64715;-54
2023/12/27 09:30:46;;;;;;;1.10;0.90;;;;;;;-147.86;79.99;-5945.24;105889;1251;72628;-52
2023/12/27 09:33:13;;;;;;;4.20;1.20;;;;;;;-147.86;79.58;-5747.25;105909;1256;60509;-55
2023/12/27 09:35:44;;;;;;;2.80;1.40;;;;;;;-147.86;79.55;-5202.79;106016;1251;60508;-54
2023/12/27 09:38:11;;;;;;;3.30;1.10;;;;;;;-147.86;80.30;-7330.70;105975;1253;75280;-55
2023/12/27 09:40:38;;;;;;;2.50;1.20;;;;;;;-147.86;80.50;-9160.90;105971;1255;65897;-54
2023/12/27 09:43:05;;;;;;;3.30;1.10;;;;;;;-147.86;79.12;-5945.18;105959;1251;73798;-51
2023/12/27 09:45:32;;;;;;;2.70;1.00;;;;;;;-147.86;79.15;-5004.66;105928;1256;60575;-52
2023/12/27 09:48:00;;;;;;;3.60;1.20;;;;;;;-147.86;78.32;-3667.67;105956;1251;60556;-52
2023/12/27 09:50:27;;;;;;;2.20;1.20;;;;;;;-147.86;77.56;3166.12;105878;1251;73751;-51
2023/12/27 09:52:54;;;;;;;1.40;1.00;;;;;;;-147.86;77.57;-844.14;106009;1255;64934;-55
2023/12/27 09:55:21;;;;;;;1.50;0.90;;;;;;;-147.86;76.17;8693.07;105736;1251;72611;-53
2023/12/27 09:57:49;;;;;;;3.10;1.10;;;;;;;-147.86;76.57;5503.04;105979;1256;60520;-58
2023/12/27 10:00:16;;;;;;;2.70;1.20;;;;;;;-147.86;77.27;48.05;105963;1251;60430;-53
2023/12/27 10:02:44;;;;;;;1.60;0.90;;;;;;;-147.86;77.52;-596.30;105950;1253;74044;-53
2023/12/27 10:05:16;;;;;;;2.10;1.10;;;;;;;-147.86;77.19;-348.25;105965;1251;63217;-54
2023/12/27 10:07:43;;;;;;;2.00;1.20;;;;;;;-147.86;77.54;-1191.01;105928;1251;71753;-52
2023/12/27 10:10:10;;;;;;;2.40;1.20;;;;;;;-147.86;77.30;-943.24;105950;1256;60339;-54
2023/12/27 10:12:51;;;;;;;1.20;1.00;;;;;;;-147.86;77.74;-1983.66;105942;1251;60616;-54
2023/12/27 10:15:18;;;;;;;3.60;1.50;;;;;;;-147.86;77.31;-2082.89;106005;1251;75233;-55
2023/12/27 10:17:45;;;;;;;1.20;1.00;;;;;;;-147.86;77.15;-1042.37;105954;1256;65018;-52
2023/12/27 10:20:33;;;;;;;1.50;0.50;;;;;;;-147.86;78.34;-3618.16;105947;1251;74121;-53
2023/12/27 10:23:01;;;;;;;1.40;0.80;;;;;;;-147.86;78.99;-6242.19;105969;1256;60989;-56
2023/12/27 10:25:28;;;;;;;1.10;0.90;;;;;;;-147.86;82.36;-11780.03;105950;1251;60531;-53
2023/12/27 10:27:56;;;;;;;2.40;1.00;;;;;;;-147.86;87.10;-17460.55;105726;1257;73870;-58
2023/12/27 10:30:24;;;;;;;2.50;1.10;;;;;;;-147.86;91.28;-17609.17;106011;1251;63866;-52
2023/12/27 10:33:00;;;;;;;2.20;1.90;;;;;;;-147.86;96.85;-17609.17;105994;1253;72899;-56
2023/12/27 10:35:31;;;;;;;1.40;1.30;;;;;;;-147.86;100.00;-17609.17;105878;1252;60510;-55
2023/12/27 10:38:03;;;;;;;2.60;2.00;;;;;;;-147.86;100.00;-17609.17;105935;1253;60414;-55
2023/12/27 10:40:34;;;;;;;4.20;1.70;;;;;;;-147.86;100.00;-17609.17;105974;1251;74093;-57
2023/12/27 10:43:01;;;;;;;3.00;1.50;;;;;;;-147.86;100.00;-17609.17;105994;1256;65155;-56
2023/12/27 10:45:28;;;;;;;1.50;0.90;;;;;;;-147.86;100.00;-17609.17;105947;1251;72791;-54
2023/12/27 10:48:04;;;;;;;0.20;0.20;;;;;;;-147.86;100.00;-17609.17;105949;1251;60771;-57
2023/12/27 10:50:32;;;;;;;0.60;0.40;;;;;;;-147.86;100.00;-17609.17;106039;1251;60525;-52
2023/12/27 10:53:06;;;;;;;1.10;0.30;;;;;;;-147.86;100.00;-17609.17;105922;1256;73694;-53
2023/12/27 10:55:33;;;;;;;2.10;0.40;;;;;;;-147.86;100.00;-17609.17;105971;1256;65123;-53
2023/12/27 10:58:03;;;;;;;3.90;0.40;;;;;;;-147.86;100.00;-17609.17;105981;1256;72685;-59
2023/12/27 11:00:30;;;;;;;0.20;0.00;;;;;;;-147.86;100.00;-17609.17;105959;1255;60518;-58